createdAt,value
2022-09-18T00:00:10.484Z,83.30
2022-09-18T00:02:37.158Z,83.44
2022-09-18T00:05:05.390Z,83.74
2022-09-18T00:07:32.032Z,83.52
2022-09-18T00:09:58.595Z,84.11
2022-09-18T00:12:25.191Z,84.19
2022-09-18T00:14:51.975Z,84.24
2022-09-18T00:17:18.546Z,84.62
2022-09-18T00:19:45.108Z,83.96
2022-09-18T00:22:11.853Z,83.71
2022-09-18T00:24:38.501Z,83.20
2022-09-18T00:27:05.337Z,82.57
2022-09-18T00:29:31.992Z,82.42
2022-09-18T00:31:59.919Z,82.21
2022-09-18T00:34:26.542Z,82.39
2022-09-18T00:36:53.105Z,83.09
2022-09-18T00:39:19.899Z,83.58
2022-09-18T00:41:46.454Z,82.52
2022-09-18T00:44:22.108Z,82.40
2022-09-18T00:46:48.740Z,82.80
2022-09-18T00:49:19.103Z,82.71
2022-09-18T00:51:46.326Z,83.47
2022-09-18T00:54:23.399Z,83.07
2022-09-18T00:56:50.724Z,82.84
2022-09-18T00:59:20.156Z,82.67
2022-09-18T01:01:46.745Z,82.95
2022-09-18T01:04:14.112Z,82.42
2022-09-18T01:06:46.848Z,82.29
2022-09-18T01:09:28.819Z,82.77
2022-09-18T01:12:10.788Z,81.79
2022-09-18T01:14:43.056Z,82.16
2022-09-18T01:17:12.529Z,82.26
2022-09-18T01:20:10.062Z,83.04
2022-09-18T01:22:51.741Z,83.08
2022-09-18T01:25:47.159Z,82.57
2022-09-18T01:28:23.720Z,83.09
2022-09-18T01:30:51.047Z,83.12
2022-09-18T01:33:31.579Z,83.11
2022-09-18T01:36:00.081Z,83.65
2022-09-18T01:38:33.458Z,83.34
2022-09-18T01:41:06.263Z,82.78
2022-09-18T01:43:32.956Z,82.67
2022-09-18T01:46:03.944Z,82.20
2022-09-18T01:48:51.639Z,81.13
2022-09-18T01:51:20.630Z,81.38
2022-09-18T01:54:11.027Z,81.66
2022-09-18T01:56:43.594Z,81.73
2022-09-18T01:59:12.398Z,82.02
2022-09-18T02:01:39.217Z,81.57
2022-09-18T02:04:11.563Z,81.84
2022-09-18T02:06:39.868Z,82.04
2022-09-18T02:09:06.479Z,81.56
2022-09-18T02:11:33.380Z,81.83
2022-09-18T02:14:14.785Z,82.20
2022-09-18T02:16:46.025Z,82.07
2022-09-18T02:19:28.240Z,81.96
2022-09-18T02:21:54.866Z,82.44
2022-09-18T02:24:22.296Z,82.38
2022-09-18T02:26:48.851Z,82.87
2022-09-18T02:29:15.735Z,82.32
2022-09-18T02:31:42.425Z,82.34
2022-09-18T02:34:09.554Z,82.37
2022-09-18T02:36:59.321Z,82.32
2022-09-18T02:39:44.397Z,82.41
2022-09-18T02:42:22.936Z,82.29
2022-09-18T02:45:03.157Z,83.00
2022-09-18T02:48:00.664Z,82.73
2022-09-18T02:50:41.594Z,82.64
2022-09-18T02:53:10.884Z,82.24
2022-09-18T02:55:42.999Z,82.71
2022-09-18T02:58:20.192Z,82.55
2022-09-18T03:00:46.806Z,82.08
2022-09-18T03:03:14.526Z,82.30
2022-09-18T03:05:41.090Z,82.59
2022-09-18T03:08:07.705Z,82.59
2022-09-18T03:10:34.287Z,82.74
2022-09-18T03:13:01.394Z,82.92
2022-09-18T03:15:28.047Z,82.68
2022-09-18T03:17:54.615Z,83.02
2022-09-18T03:20:21.205Z,83.28
2022-09-18T03:22:47.829Z,82.96
2022-09-18T03:25:15.431Z,82.67
2022-09-18T03:27:42.995Z,82.33
2022-09-18T03:30:09.994Z,82.50
2022-09-18T03:32:36.601Z,82.52
2022-09-18T03:35:03.184Z,83.01
2022-09-18T03:37:29.739Z,82.65
2022-09-18T03:39:56.600Z,82.72
2022-09-18T03:42:23.179Z,83.04
2022-09-18T03:44:49.759Z,83.05
2022-09-18T03:47:16.360Z,83.30
2022-09-18T03:49:42.899Z,82.83
2022-09-18T03:52:09.469Z,83.32
2022-09-18T03:54:36.035Z,82.63
2022-09-18T03:57:02.606Z,82.19
2022-09-18T03:59:29.193Z,81.69
2022-09-18T04:01:55.928Z,81.95
2022-09-18T04:04:22.655Z,81.70
2022-09-18T04:06:49.232Z,81.42
2022-09-18T04:09:20.838Z,82.12
2022-09-18T04:11:47.406Z,81.43
2022-09-18T04:14:14.825Z,80.95
2022-09-18T04:16:41.403Z,81.00
2022-09-18T04:19:08.004Z,80.95
2022-09-18T04:21:34.625Z,80.83
2022-09-18T04:24:01.427Z,80.89
2022-09-18T04:26:28.081Z,81.25
2022-09-18T04:28:54.726Z,81.59
2022-09-18T04:31:21.337Z,81.83
2022-09-18T04:33:48.421Z,82.05
2022-09-18T04:36:15.294Z,81.63
2022-09-18T04:38:41.854Z,81.86
2022-09-18T04:41:08.634Z,81.80
2022-09-18T04:43:35.204Z,81.66
2022-09-18T04:46:02.473Z,81.72
2022-09-18T04:48:29.127Z,81.55
2022-09-18T04:50:55.723Z,82.07
2022-09-18T04:53:22.351Z,81.74
2022-09-18T04:55:48.992Z,81.84
2022-09-18T04:58:16.044Z,82.17
2022-09-18T05:00:56.125Z,82.40
2022-09-18T05:03:22.783Z,82.36
2022-09-18T05:05:50.366Z,82.41
2022-09-18T05:08:17.164Z,82.78
2022-09-18T05:10:43.876Z,83.19
2022-09-18T05:13:10.563Z,82.89
2022-09-18T05:15:37.200Z,82.95
2022-09-18T05:18:11.365Z,83.31
2022-09-18T05:20:38.213Z,83.09
2022-09-18T05:23:04.804Z,83.08
2022-09-18T05:25:31.662Z,83.21
2022-09-18T05:27:59.719Z,83.97
2022-09-18T05:30:26.746Z,83.74
2022-09-18T05:33:00.544Z,82.95
2022-09-18T05:35:28.463Z,84.20
2022-09-18T05:37:55.225Z,83.96
2022-09-18T05:40:25.603Z,84.09
2022-09-18T05:42:55.653Z,83.89
2022-09-18T05:45:22.463Z,83.68
2022-09-18T05:47:59.323Z,84.02
2022-09-18T05:50:26.747Z,84.31
2022-09-18T05:53:15.474Z,84.12
2022-09-18T05:55:42.083Z,83.78
2022-09-18T05:58:12.256Z,83.63
2022-09-18T06:00:38.832Z,83.67
2022-09-18T06:03:07.110Z,83.66
2022-09-18T06:05:34.732Z,84.46
2022-09-18T06:08:02.041Z,84.39
2022-09-18T06:10:29.344Z,84.46
2022-09-18T06:13:05.765Z,85.13
2022-09-18T06:15:32.772Z,84.79
2022-09-18T06:17:59.379Z,84.89
2022-09-18T06:20:26.114Z,85.27
2022-09-18T06:22:52.745Z,84.84
2022-09-18T06:25:21.937Z,84.89
2022-09-18T06:27:53.586Z,84.73
2022-09-18T06:30:20.496Z,85.09
2022-09-18T06:32:47.148Z,85.01
2022-09-18T06:35:13.844Z,84.37
2022-09-18T06:37:40.441Z,84.29
2022-09-18T06:40:07.282Z,84.37
2022-09-18T06:42:33.999Z,84.52
2022-09-18T06:45:00.580Z,84.48
2022-09-18T06:47:27.161Z,84.27
2022-09-18T06:49:53.803Z,83.30
2022-09-18T06:52:20.402Z,83.03
2022-09-18T06:54:47.037Z,83.50
2022-09-18T06:57:13.638Z,82.78
2022-09-18T06:59:40.276Z,80.98
2022-09-18T07:02:15.034Z,81.33
2022-09-18T07:04:44.087Z,82.02
2022-09-18T07:07:10.682Z,82.16
2022-09-18T07:09:37.272Z,81.93
2022-09-18T07:12:03.978Z,81.75
2022-09-18T07:14:30.627Z,82.38
2022-09-18T07:16:57.214Z,82.24
2022-09-18T07:19:23.960Z,81.78
2022-09-18T07:21:52.143Z,81.14
2022-09-18T07:24:18.781Z,80.87
2022-09-18T07:26:45.375Z,79.75
2022-09-18T07:29:11.941Z,80.41
2022-09-18T07:31:38.633Z,80.68
2022-09-18T07:34:07.301Z,79.76
2022-09-18T07:36:33.943Z,79.81
2022-09-18T07:39:00.690Z,79.70
2022-09-18T07:41:27.502Z,80.22
2022-09-18T07:43:54.082Z,79.99
2022-09-18T07:46:20.734Z,79.84
2022-09-18T07:48:47.374Z,80.59
2022-09-18T07:51:14.250Z,81.03
2022-09-18T07:53:41.282Z,79.68
2022-09-18T07:56:09.381Z,79.38
2022-09-18T07:58:36.310Z,78.98
2022-09-18T08:01:03.400Z,80.06
2022-09-18T08:03:30.227Z,79.72
2022-09-18T08:05:56.874Z,80.07
2022-09-18T08:08:23.536Z,80.58
2022-09-18T08:10:50.140Z,80.53
2022-09-18T08:13:16.709Z,80.74
2022-09-18T08:15:43.320Z,79.83
2022-09-18T08:18:11.428Z,79.96
2022-09-18T08:20:38.036Z,79.35
2022-09-18T08:23:06.232Z,79.21
2022-09-18T08:25:33.012Z,78.69
2022-09-18T08:28:01.712Z,78.88
2022-09-18T08:30:28.516Z,78.29
2022-09-18T08:33:02.936Z,78.65
2022-09-18T08:35:30.686Z,77.57
2022-09-18T08:37:58.116Z,76.92
2022-09-18T08:40:39.440Z,78.47
2022-09-18T08:43:21.844Z,78.71
2022-09-18T08:46:05.303Z,77.36
2022-09-18T08:48:35.196Z,77.86
2022-09-18T08:51:19.360Z,77.93
2022-09-18T08:53:47.872Z,78.30
2022-09-18T08:56:20.949Z,77.52
2022-09-18T08:58:52.568Z,77.57
2022-09-18T09:01:19.265Z,76.14
2022-09-18T09:04:07.462Z,76.67
2022-09-18T09:06:46.097Z,76.79
2022-09-18T09:09:22.729Z,75.92
2022-09-18T09:12:02.126Z,74.75
2022-09-18T09:14:58.148Z,75.10
2022-09-18T09:17:40.067Z,74.30
2022-09-18T09:20:12.556Z,74.62
2022-09-18T09:23:05.613Z,74.48
2022-09-18T09:25:51.350Z,74.28
2022-09-18T09:28:23.731Z,74.48
2022-09-18T09:30:54.702Z,74.92
2022-09-18T09:33:24.798Z,74.11
2022-09-18T09:35:53.772Z,74.66
2022-09-18T09:38:32.345Z,74.50
2022-09-18T09:41:01.711Z,75.08
2022-09-18T09:43:32.508Z,75.90
2022-09-18T09:46:00.892Z,75.53
2022-09-18T09:48:30.717Z,75.38
2022-09-18T09:51:07.849Z,75.74
2022-09-18T09:53:34.402Z,75.81
2022-09-18T09:56:28.927Z,76.01
2022-09-18T09:59:34.449Z,75.90
2022-09-18T10:02:25.798Z,76.24
2022-09-18T10:05:10.973Z,75.08
2022-09-18T10:07:41.538Z,76.02
2022-09-18T10:10:18.938Z,76.84
2022-09-18T10:13:02.061Z,76.38
2022-09-18T10:15:40.621Z,76.25
2022-09-18T10:18:39.495Z,76.47
2022-09-18T10:21:09.423Z,76.59
2022-09-18T10:24:20.528Z,77.46
2022-09-18T10:26:50.334Z,76.70
2022-09-18T10:29:17.648Z,77.64
2022-09-18T10:31:49.436Z,78.00
2022-09-18T10:34:42.574Z,77.77
2022-09-18T10:37:16.077Z,78.27
2022-09-18T10:39:51.446Z,78.51
2022-09-18T10:42:22.198Z,78.57
2022-09-18T10:45:13.073Z,78.82
2022-09-18T10:47:39.750Z,79.16
2022-09-18T10:50:06.411Z,79.24
2022-09-18T10:52:42.972Z,79.35
2022-09-18T10:55:12.935Z,79.72
2022-09-18T10:57:43.745Z,78.63
2022-09-18T11:00:13.764Z,77.82
2022-09-18T11:02:57.197Z,77.79
2022-09-18T11:05:31.532Z,78.30
2022-09-18T11:07:59.680Z,78.62
2022-09-18T11:10:27.085Z,77.93
2022-09-18T11:12:56.044Z,78.66
2022-09-18T11:15:28.422Z,79.14
2022-09-18T11:17:56.554Z,79.43
2022-09-18T11:20:27.112Z,79.45
2022-09-18T11:23:34.185Z,79.50
2022-09-18T11:26:29.826Z,79.83
2022-09-18T11:29:02.431Z,80.40
2022-09-18T11:31:50.124Z,81.04
2022-09-18T11:34:32.094Z,81.53
2022-09-18T11:37:05.410Z,82.07
2022-09-18T11:39:43.410Z,82.20
2022-09-18T11:42:12.536Z,82.06
2022-09-18T11:44:39.530Z,81.75
2022-09-18T11:47:12.089Z,82.24
2022-09-18T11:49:44.689Z,82.03
2022-09-18T11:52:17.269Z,81.69
2022-09-18T11:54:48.995Z,81.82
2022-09-18T11:57:51.301Z,81.73
2022-09-18T12:00:22.329Z,82.10
2022-09-18T12:03:00.629Z,81.64
2022-09-18T12:05:33.152Z,80.88
2022-09-18T12:08:20.376Z,80.82
2022-09-18T12:10:48.699Z,80.71
2022-09-18T12:13:21.861Z,80.11
2022-09-18T12:16:07.701Z,80.57
2022-09-18T12:18:48.485Z,79.74
2022-09-18T12:21:17.098Z,80.30
2022-09-18T12:23:43.683Z,80.76
2022-09-18T12:26:40.532Z,80.39
2022-09-18T12:29:22.789Z,80.15
2022-09-18T12:32:20.060Z,80.11
2022-09-18T12:35:17.395Z,80.33
2022-09-18T12:37:45.636Z,81.07
2022-09-18T12:40:25.831Z,80.73
2022-09-18T12:43:26.407Z,80.52
2022-09-18T12:46:14.180Z,79.39
2022-09-18T12:48:45.824Z,79.80
2022-09-18T12:51:36.825Z,78.37
2022-09-18T12:54:17.930Z,78.53
2022-09-18T12:57:00.775Z,77.65
2022-09-18T12:59:49.851Z,77.24
2022-09-18T13:02:16.295Z,76.68
2022-09-18T13:04:46.845Z,75.13
2022-09-18T13:07:17.153Z,74.70
2022-09-18T13:10:00.977Z,73.55
2022-09-18T13:12:31.277Z,74.13
2022-09-18T13:15:01.801Z,73.20
2022-09-18T13:17:34.620Z,72.71
2022-09-18T13:20:11.327Z,69.99
2022-09-18T13:22:38.086Z,70.54
2022-09-18T13:25:19.064Z,69.98
2022-09-18T13:27:49.684Z,67.56
2022-09-18T13:30:31.964Z,65.79
2022-09-18T13:32:59.022Z,65.25
2022-09-18T13:35:30.684Z,64.87
2022-09-18T13:38:20.040Z,66.20
2022-09-18T13:40:56.659Z,65.37
2022-09-18T13:43:43.617Z,67.40
2022-09-18T13:46:31.797Z,65.51
2022-09-18T13:48:59.072Z,65.75
2022-09-18T13:51:32.748Z,67.24
2022-09-18T13:54:11.587Z,68.52
2022-09-18T13:57:03.165Z,67.71
2022-09-18T13:59:48.520Z,66.49
2022-09-18T14:02:25.273Z,65.50
2022-09-18T14:05:04.504Z,66.26
2022-09-18T14:07:31.017Z,67.03
2022-09-18T14:10:03.057Z,66.57
2022-09-18T14:12:33.402Z,66.09
2022-09-18T14:15:05.670Z,65.84
2022-09-18T14:17:33.123Z,64.62
2022-09-18T14:20:07.647Z,64.63
2022-09-18T14:22:38.029Z,66.52
2022-09-18T14:25:07.420Z,64.64
2022-09-18T14:27:56.063Z,64.88
2022-09-18T14:30:27.487Z,62.72
2022-09-18T14:33:16.459Z,62.21
2022-09-18T14:35:43.050Z,61.82
2022-09-18T14:38:36.701Z,63.52
2022-09-18T14:41:19.400Z,60.30
2022-09-18T14:43:56.985Z,61.89
2022-09-18T14:46:24.841Z,60.00
2022-09-18T14:48:51.686Z,61.80
2022-09-18T14:51:21.482Z,62.21
2022-09-18T14:53:52.777Z,61.10
2022-09-18T14:56:36.304Z,60.86
2022-09-18T14:59:07.320Z,60.71
2022-09-18T15:01:37.791Z,62.65
2022-09-18T15:04:05.171Z,61.31
2022-09-18T15:06:47.522Z,61.45
2022-09-18T15:09:15.329Z,62.38
2022-09-18T15:12:01.431Z,63.85
2022-09-18T15:14:41.821Z,62.59
2022-09-18T15:17:25.166Z,63.10
2022-09-18T15:19:59.903Z,62.66
2022-09-18T15:22:27.171Z,63.50
2022-09-18T15:24:53.836Z,62.58
2022-09-18T15:27:20.778Z,63.71
2022-09-18T15:30:09.698Z,62.67
2022-09-18T15:32:40.921Z,62.51
2022-09-18T15:35:08.968Z,63.37
2022-09-18T15:37:38.374Z,63.57
2022-09-18T15:40:06.686Z,62.74
2022-09-18T15:42:38.282Z,63.82
2022-09-18T15:45:07.949Z,63.00
2022-09-18T15:47:37.864Z,62.72
2022-09-18T15:50:10.566Z,64.11
2022-09-18T15:52:41.217Z,64.21
2022-09-18T15:55:10.883Z,65.25
2022-09-18T15:57:38.017Z,65.59
2022-09-18T16:00:11.738Z,65.65
2022-09-18T16:02:39.314Z,65.60
2022-09-18T16:05:13.717Z,65.93
2022-09-18T16:07:40.855Z,66.39
2022-09-18T16:10:35.177Z,66.88
2022-09-18T16:13:11.115Z,66.27
2022-09-18T16:15:37.799Z,67.00
2022-09-18T16:18:24.729Z,67.36
2022-09-18T16:20:51.462Z,68.26
2022-09-18T16:23:32.764Z,68.10
2022-09-18T16:26:06.041Z,68.51
2022-09-18T16:28:57.070Z,68.57
2022-09-18T16:31:25.596Z,68.49
2022-09-18T16:34:01.393Z,69.10
2022-09-18T16:36:35.393Z,69.63
2022-09-18T16:39:04.382Z,69.93
2022-09-18T16:41:31.076Z,70.30
2022-09-18T16:43:57.805Z,71.07
2022-09-18T16:46:27.149Z,70.87
2022-09-18T16:48:53.757Z,71.00
2022-09-18T16:51:21.963Z,71.03
2022-09-18T16:53:48.534Z,71.57
2022-09-18T16:56:16.196Z,71.81
2022-09-18T16:58:42.793Z,71.69
2022-09-18T17:01:09.896Z,71.42
2022-09-18T17:03:36.729Z,71.88
2022-09-18T17:06:03.427Z,72.14
2022-09-18T17:08:30.458Z,71.71
2022-09-18T17:10:57.265Z,72.21
2022-09-18T17:13:23.982Z,72.12
2022-09-18T17:15:50.651Z,72.50
2022-09-18T17:18:17.364Z,72.34
2022-09-18T17:20:45.885Z,73.79
2022-09-18T17:23:12.528Z,72.56
2022-09-18T17:25:39.104Z,73.14
2022-09-18T17:28:06.041Z,73.19
2022-09-18T17:30:32.614Z,73.66
2022-09-18T17:32:59.318Z,73.84
2022-09-18T17:35:26.507Z,73.98
2022-09-18T17:37:53.253Z,74.09
2022-09-18T17:40:19.922Z,74.73
2022-09-18T17:42:46.560Z,74.13
2022-09-18T17:45:13.226Z,74.20
2022-09-18T17:47:39.835Z,74.18
2022-09-18T17:50:07.529Z,74.25
2022-09-18T17:52:37.412Z,74.51
2022-09-18T17:55:04.302Z,74.50
2022-09-18T17:57:32.116Z,74.10
2022-09-18T17:59:58.703Z,74.34
2022-09-18T18:02:25.426Z,74.87
2022-09-18T18:04:52.088Z,74.80
2022-09-18T18:07:18.640Z,75.20
2022-09-18T18:09:45.190Z,75.15
2022-09-18T18:12:13.800Z,75.48
2022-09-18T18:14:41.649Z,75.37
2022-09-18T18:17:08.689Z,76.22
2022-09-18T18:19:35.322Z,75.92
2022-09-18T18:22:01.883Z,75.39
2022-09-18T18:24:29.793Z,75.68
2022-09-18T18:26:57.056Z,75.53
2022-09-18T18:29:24.323Z,76.07
2022-09-18T18:31:51.715Z,76.15
2022-09-18T18:34:22.336Z,75.50
2022-09-18T18:36:50.284Z,75.77
2022-09-18T18:39:16.952Z,75.76
2022-09-18T18:41:44.947Z,76.01
2022-09-18T18:44:21.848Z,75.57
2022-09-18T18:46:50.177Z,75.89
2022-09-18T18:49:17.096Z,75.88
2022-09-18T18:51:48.015Z,76.11
2022-09-18T18:54:16.047Z,76.51
2022-09-18T18:56:43.344Z,76.74
2022-09-18T18:59:15.035Z,76.92
2022-09-18T19:01:42.767Z,77.10
2022-09-18T19:04:11.699Z,77.35
2022-09-18T19:06:40.345Z,77.64
2022-09-18T19:09:19.790Z,78.30
2022-09-18T19:11:48.397Z,77.94
2022-09-18T19:14:19.774Z,78.23
2022-09-18T19:16:46.682Z,78.57
2022-09-18T19:19:13.974Z,78.36
2022-09-18T19:21:40.768Z,78.47
2022-09-18T19:24:08.493Z,78.57
2022-09-18T19:26:35.367Z,78.80
2022-09-18T19:29:05.584Z,78.47
2022-09-18T19:31:33.329Z,78.78
2022-09-18T19:33:59.988Z,78.41
2022-09-18T19:36:28.086Z,78.35
2022-09-18T19:38:59.169Z,78.19
2022-09-18T19:41:25.625Z,78.95
2022-09-18T19:43:52.432Z,78.51
2022-09-18T19:46:24.217Z,78.35
2022-09-18T19:48:51.397Z,78.39
2022-09-18T19:51:18.046Z,78.77
2022-09-18T19:53:44.690Z,78.49
2022-09-18T19:56:27.604Z,78.08
2022-09-18T19:58:58.226Z,78.40
2022-09-18T20:01:24.779Z,78.44
2022-09-18T20:03:54.805Z,78.15
2022-09-18T20:06:22.978Z,77.97
2022-09-18T20:08:50.070Z,78.49
2022-09-18T20:11:16.693Z,77.98
2022-09-18T20:13:43.317Z,78.05
2022-09-18T20:16:10.357Z,78.33
2022-09-18T20:18:37.889Z,78.43
2022-09-18T20:21:08.956Z,78.50
2022-09-18T20:23:36.227Z,78.05
2022-09-18T20:26:18.138Z,78.21
2022-09-18T20:28:44.810Z,78.05
2022-09-18T20:31:14.229Z,78.86
2022-09-18T20:33:40.949Z,78.35
2022-09-18T20:36:08.340Z,78.35
2022-09-18T20:38:36.886Z,78.24
2022-09-18T20:41:06.930Z,78.29
2022-09-18T20:43:35.831Z,78.67
2022-09-18T20:46:05.505Z,79.30
2022-09-18T20:48:36.717Z,78.96
2022-09-18T20:51:09.220Z,79.92
2022-09-18T20:53:38.302Z,80.02
2022-09-18T20:56:09.506Z,79.75
2022-09-18T20:58:36.222Z,80.31
2022-09-18T21:01:12.732Z,80.11
2022-09-18T21:03:43.092Z,80.69
2022-09-18T21:06:22.820Z,80.41
2022-09-18T21:08:50.806Z,81.29
2022-09-18T21:11:19.729Z,80.78
2022-09-18T21:13:49.181Z,80.86
2022-09-18T21:16:20.575Z,80.77
2022-09-18T21:18:48.134Z,81.03
2022-09-18T21:21:15.901Z,81.27
2022-09-18T21:23:56.200Z,81.52
2022-09-18T21:26:33.119Z,81.78
2022-09-18T21:29:12.956Z,81.21
2022-09-18T21:31:42.650Z,81.55
2022-09-18T21:34:14.241Z,82.08
2022-09-18T21:36:45.388Z,82.09
2022-09-18T21:39:13.003Z,82.30
2022-09-18T21:41:40.149Z,82.29
2022-09-18T21:44:08.730Z,82.98
2022-09-18T21:46:38.854Z,83.66
2022-09-18T21:49:06.886Z,83.48
2022-09-18T21:51:37.353Z,83.88
2022-09-18T21:54:05.576Z,83.40
2022-09-18T21:56:32.551Z,83.50
2022-09-18T21:58:59.980Z,83.85
2022-09-18T22:01:28.587Z,84.27
2022-09-18T22:03:56.394Z,84.07
2022-09-18T22:06:27.447Z,84.01
2022-09-18T22:08:56.627Z,83.95
2022-09-18T22:11:29.594Z,84.71
2022-09-18T22:14:00.997Z,85.19
2022-09-18T22:16:28.896Z,84.99
2022-09-18T22:18:55.661Z,85.28
2022-09-18T22:21:24.753Z,85.58
2022-09-18T22:23:53.283Z,85.43
2022-09-18T22:26:25.059Z,85.62
2022-09-18T22:28:56.549Z,85.67
2022-09-18T22:31:24.104Z,86.03
2022-09-18T22:33:57.697Z,85.75
2022-09-18T22:36:25.134Z,86.37
2022-09-18T22:38:52.302Z,86.01
2022-09-18T22:41:18.988Z,86.21
2022-09-18T22:43:45.587Z,86.83
2022-09-18T22:46:24.077Z,86.64
2022-09-18T22:48:51.478Z,86.52
2022-09-18T22:51:19.234Z,87.29
2022-09-18T22:54:04.840Z,87.09
2022-09-18T22:56:31.454Z,86.98
2022-09-18T22:58:58.186Z,86.90
2022-09-18T23:01:27.615Z,86.99
2022-09-18T23:03:56.756Z,87.32
2022-09-18T23:06:25.570Z,87.05
2022-09-18T23:08:52.922Z,87.07
2022-09-18T23:11:24.301Z,87.03
2022-09-18T23:13:52.980Z,87.07
2022-09-18T23:16:19.910Z,86.88
2022-09-18T23:18:54.324Z,86.95
2022-09-18T23:21:21.863Z,86.61
2022-09-18T23:23:49.013Z,87.09
2022-09-18T23:26:23.280Z,87.00
2022-09-18T23:28:51.090Z,87.16
2022-09-18T23:31:24.128Z,87.06
2022-09-18T23:33:52.611Z,87.09
2022-09-18T23:36:30.038Z,87.18
2022-09-18T23:38:58.223Z,86.41
2022-09-18T23:41:24.924Z,87.01
2022-09-18T23:43:52.392Z,87.21
2022-09-18T23:46:19.167Z,87.08
2022-09-18T23:48:47.442Z,85.87
2022-09-18T23:51:14.103Z,86.66
2022-09-18T23:53:41.792Z,86.50
2022-09-18T23:56:12.398Z,86.04
2022-09-18T23:58:39.048Z,86.53
